Time;durP1;ratioP1;P1;durP2;ratioP2;P2;SDS_P1;SDS_P2;PMS_P1;PMS_P2;Temp;Humidity;BMP_temperature;BMP_pressure;BME280_temperature;BME280_humidity;BME280_pressure;Samples;Min_cycle;Max_cycle;Signal;HPM_P1;HPM_P2
2022/04/10 00:02:13;;;;;;;0.80;0.80;;;4.00;71.70;;;2.72;59.79;94543.72;5049382;28;20202;-83
2022/04/10 00:04:40;;;;;;;0.70;0.70;;;4.00;71.60;;;2.76;59.72;94560.59;5058288;28;20641;-84
2022/04/10 00:07:07;;;;;;;0.70;0.70;;;4.00;71.70;;;2.77;59.16;94554.44;5012398;28;20639;-85
2022/04/10 00:09:34;;;;;;;0.77;0.77;;;4.00;71.70;;;2.77;59.15;94558.78;5061665;28;20283;-85
2022/04/10 00:12:03;;;;;;;0.80;0.80;;;3.90;71.60;;;2.75;58.94;94558.94;5049472;28;20223;-85
2022/04/10 00:14:30;;;;;;;0.80;0.80;;;3.90;71.70;;;2.72;59.45;94564.44;5063317;28;20222;-84
2022/04/10 00:16:57;;;;;;;0.70;0.70;;;3.90;71.60;;;2.74;59.18;94572.06;5023966;28;20203;-84
2022/04/10 00:19:24;;;;;;;0.70;0.70;;;3.90;71.60;;;2.71;59.29;94562.78;5053217;28;20445;-84
2022/04/10 00:21:51;;;;;;;0.70;0.70;;;3.90;71.60;;;2.64;59.95;94565.19;5031755;28;20212;-84
2022/04/10 00:24:19;;;;;;;0.80;0.80;;;3.90;71.70;;;2.68;59.57;94574.28;5049391;28;20242;-84
2022/04/10 00:26:46;;;;;;;0.80;0.80;;;3.90;71.60;;;2.68;59.63;94576.88;5001382;28;20223;-84
2022/04/10 00:29:13;;;;;;;0.80;0.80;;;3.90;71.60;;;2.68;59.63;94581.25;5030245;28;20382;-83
2022/04/10 00:31:40;;;;;;;0.75;0.75;;;3.90;71.70;;;2.72;59.54;94577.38;5048942;28;20215;-85
2022/04/10 00:34:07;;;;;;;0.70;0.70;;;3.90;71.60;;;2.80;59.98;94592.97;5016489;28;20243;-84
2022/04/10 00:36:34;;;;;;;0.70;0.70;;;3.90;71.90;;;2.88;59.96;94592.19;5034435;28;20669;-85
2022/04/10 00:39:02;;;;;;;0.80;0.80;;;3.90;72.10;;;2.98;59.65;94589.50;5039728;28;20625;-84
2022/04/10 00:41:30;;;;;;;0.80;0.80;;;3.90;72.20;;;3.03;60.13;94593.28;5011933;28;20231;-85
2022/04/10 00:44:07;;;;;;;0.70;0.70;;;4.00;72.50;;;3.12;59.49;94595.94;5015452;28;20222;-85
2022/04/10 00:46:35;;;;;;;0.80;0.80;;;4.10;72.60;;;3.13;59.58;94598.34;5018872;28;20195;-83
2022/04/10 00:49:05;;;;;;;0.80;0.80;;;4.10;72.10;;;3.14;59.29;94599.19;5051603;28;20222;-84
2022/04/10 00:51:46;;;;;;;0.70;0.70;;;4.10;71.70;;;3.05;59.23;94587.94;5002123;28;20663;-84
2022/04/10 00:54:17;;;;;;;0.80;0.80;;;4.20;71.80;;;3.05;58.89;94587.94;5030898;28;20260;-84
2022/04/10 00:56:45;;;;;;;0.70;0.70;;;4.20;71.80;;;2.98;59.16;94598.13;5016862;28;20204;-84
2022/04/10 00:59:14;;;;;;;0.70;0.70;;;4.20;71.80;;;2.95;58.84;94597.59;5041675;28;20270;-85
2022/04/10 01:01:45;;;;;;;0.70;0.70;;;4.10;71.70;;;2.91;59.25;94596.28;5003850;28;20191;-84
2022/04/10 01:04:32;;;;;;;0.68;0.68;;;4.10;71.70;;;2.76;59.90;94591.66;5053681;28;20215;-84
2022/04/10 01:07:00;;;;;;;0.80;0.80;;;4.10;71.70;;;2.78;60.10;94601.88;5051150;28;20681;-85
2022/04/10 01:09:29;;;;;;;0.80;0.80;;;4.10;71.80;;;2.75;59.90;94604.75;5051373;28;20310;-84
2022/04/10 01:11:56;;;;;;;0.75;0.75;;;4.00;71.70;;;2.72;59.76;94611.88;5051255;28;20224;-84
2022/04/10 01:14:27;;;;;;;0.80;0.80;;;4.00;71.70;;;2.53;59.98;94586.97;5050887;28;20229;-84
2022/04/10 01:16:54;;;;;;;0.80;0.80;;;4.00;71.70;;;2.62;59.69;94611.13;5005444;28;20196;-84
2022/04/10 01:19:23;;;;;;;0.80;0.80;;;3.90;71.60;;;2.59;59.92;94613.19;5037288;28;20223;-84
2022/04/10 01:22:00;;;;;;;0.80;0.80;;;3.90;71.60;;;2.61;59.90;94632.00;5013125;28;20211;-84
2022/04/10 01:24:28;;;;;;;0.80;0.80;;;3.90;72.00;;;2.50;59.60;94623.50;5034466;28;20715;-85
2022/04/10 01:26:57;;;;;;;0.80;0.80;;;3.80;71.60;;;2.54;59.75;94629.22;5034799;28;20693;-84
2022/04/10 01:29:29;;;;;;;0.80;0.80;;;3.80;71.50;;;2.54;59.79;94640.38;5050563;28;20216;-84
2022/04/10 01:31:57;;;;;;;0.80;0.80;;;3.80;71.50;;;2.36;59.88;94614.47;5067591;28;20219;-83
2022/04/10 01:34:24;;;;;;;0.70;0.70;;;3.80;71.50;;;2.56;59.51;94646.22;5033483;28;20215;-84
2022/04/10 01:36:52;;;;;;;0.70;0.70;;;3.80;71.50;;;2.61;59.80;94645.75;5051381;28;20208;-85
2022/04/10 01:39:20;;;;;;;0.80;0.80;;;3.70;71.70;;;2.44;59.65;94615.50;5051442;28;20682;-85
2022/04/10 01:41:50;;;;;;;0.63;0.63;;;3.70;71.90;;;2.66;59.54;94642.72;5022107;28;20288;-83
2022/04/10 01:44:18;;;;;;;0.70;0.70;;;3.80;71.80;;;2.68;59.05;94641.59;5011790;28;20230;-85
2022/04/10 01:46:45;;;;;;;0.70;0.70;;;3.80;71.70;;;2.74;59.27;94658.31;5031109;28;20250;-84
2022/04/10 01:49:12;;;;;;;0.63;0.63;;;3.80;71.60;;;2.77;59.32;94658.03;5057892;28;20356;-85
2022/04/10 01:51:40;;;;;;;0.80;0.80;;;3.80;71.60;;;2.73;58.94;94648.91;5029386;28;20788;-85
2022/04/10 01:54:08;;;;;;;0.60;0.60;;;3.80;71.50;;;2.87;59.05;94661.34;5022498;28;20761;-84
2022/04/10 01:56:35;;;;;;;0.80;0.80;;;3.90;71.80;;;2.81;58.81;94648.19;5054225;28;20275;-84
2022/04/10 01:59:04;;;;;;;0.80;0.80;;;3.90;71.70;;;2.99;59.22;94666.28;5022229;28;20743;-84
2022/04/10 02:01:32;;;;;;;0.80;0.80;;;4.00;71.70;;;3.04;58.79;94651.91;5009427;28;20184;-84
2022/04/10 02:03:59;;;;;;;0.68;0.68;;;4.00;71.70;;;2.95;58.58;94642.44;5038136;28;20219;-85
2022/04/10 02:06:26;;;;;;;0.70;0.70;;;4.00;71.70;;;3.07;58.49;94655.97;5021727;28;20223;-85
2022/04/10 02:08:53;;;;;;;0.70;0.70;;;4.10;71.70;;;3.00;58.01;94660.13;5005289;28;20220;-84
2022/04/10 02:11:22;;;;;;;0.60;0.60;;;4.10;71.70;;;2.97;58.17;94665.63;5053257;28;20216;-84
2022/04/10 02:13:54;;;;;;;0.70;0.70;;;4.10;71.70;;;2.91;57.99;94666.22;5039749;28;20223;-84
2022/04/10 02:16:22;;;;;;;0.70;0.70;;;4.10;71.30;;;2.81;58.19;94661.94;5005344;28;20218;-84
2022/04/10 02:18:50;;;;;;;0.80;0.80;;;4.10;71.20;;;2.74;57.74;94665.28;5054954;28;20658;-84
2022/04/10 02:21:18;;;;;;;0.70;0.70;;;4.00;71.10;;;2.67;58.00;94668.47;5028619;28;20204;-85
2022/04/10 02:23:46;;;;;;;0.80;0.80;;;4.00;71.10;;;2.63;58.03;94666.34;5051877;28;20208;-84
2022/04/10 02:26:13;;;;;;;0.80;0.80;;;3.90;71.20;;;2.62;58.03;94672.47;5060048;28;20210;-84
2022/04/10 02:28:41;;;;;;;0.80;0.80;;;3.90;71.60;;;2.66;58.36;94672.03;5019202;28;20192;-84
2022/04/10 02:31:09;;;;;;;0.80;0.80;;;3.80;71.50;;;2.72;58.21;94671.44;5053222;28;20270;-85
2022/04/10 02:33:37;;;;;;;0.70;0.70;;;3.80;71.50;;;2.82;58.85;94676.53;5036787;28;20224;-85
2022/04/10 02:36:06;;;;;;;0.60;0.60;;;3.90;71.70;;;2.91;58.43;94679.19;5036154;28;20200;-84
2022/04/10 02:38:36;;;;;;;0.80;0.80;;;3.90;71.60;;;2.95;58.18;94678.72;5053522;28;20199;-84
2022/04/10 02:41:04;;;;;;;0.75;0.75;;;3.90;71.60;;;2.94;58.10;94669.34;5052989;28;20200;-84
2022/04/10 02:43:32;;;;;;;0.80;0.80;;;4.00;71.70;;;3.02;57.80;94671.97;5048955;28;20203;-83
2022/04/10 02:46:03;;;;;;;0.60;0.60;;;4.00;71.70;;;3.03;58.16;94677.97;5018635;28;20215;-84
2022/04/10 02:48:34;;;;;;;0.60;0.60;;;4.00;71.70;;;3.06;58.01;94680.25;5068581;28;20223;-84
2022/04/10 02:51:04;;;;;;;0.60;0.60;;;4.10;71.70;;;3.11;58.15;94685.00;5052914;28;20646;-84
2022/04/10 02:53:31;;;;;;;0.80;0.80;;;4.10;71.70;;;3.11;57.63;94680.59;5052346;28;20670;-84
2022/04/10 02:55:58;;;;;;;0.80;0.80;;;4.10;71.70;;;3.03;57.98;94662.44;5019832;28;20215;-84
2022/04/10 02:58:26;;;;;;;0.70;0.70;;;4.10;71.70;;;3.18;58.08;94684.22;5036265;28;20195;-83
2022/04/10 03:00:53;;;;;;;0.60;0.60;;;4.10;71.70;;;3.15;57.74;94681.94;5036501;28;20204;-83
2022/04/10 03:03:21;;;;;;;0.70;0.70;;;4.20;71.70;;;3.15;57.71;94681.94;5019914;28;20195;-83
2022/04/10 03:05:48;;;;;;;0.65;0.65;;;4.20;71.30;;;3.07;57.50;94675.91;5036007;28;20273;-84
2022/04/10 03:08:17;;;;;;;0.70;0.70;;;4.20;71.10;;;3.03;57.30;94683.97;5053982;28;20646;-83
2022/04/10 03:10:45;;;;;;;0.80;0.80;;;4.20;70.90;;;2.92;57.19;94683.38;5019374;28;20221;-83
2022/04/10 03:13:12;;;;;;;0.80;0.80;;;4.20;70.80;;;2.84;57.89;94686.72;5048057;28;20706;-84
2022/04/10 03:15:39;;;;;;;0.70;0.70;;;4.10;70.60;;;2.61;57.16;94674.22;5051406;28;20215;-83
2022/04/10 03:18:06;;;;;;;0.80;0.80;;;4.10;70.60;;;2.64;57.45;94689.47;5045698;28;20195;-84
2022/04/10 03:20:34;;;;;;;0.70;0.70;;;4.10;70.60;;;2.59;57.73;94691.72;5024150;28;20220;-84
2022/04/10 03:23:08;;;;;;;0.80;0.80;;;4.00;70.50;;;2.51;57.55;94699.38;5002545;28;20685;-84
2022/04/10 03:25:36;;;;;;;0.80;0.80;;;3.90;70.50;;;2.43;57.39;94701.88;5019926;28;20265;-83
2022/04/10 03:28:04;;;;;;;0.70;0.70;;;3.80;70.40;;;2.28;57.50;94694.63;5023433;28;20683;-83
2022/04/10 03:30:31;;;;;;;0.77;0.77;;;3.80;70.40;;;2.27;57.17;94712.91;5054149;28;20701;-83
2022/04/10 03:32:59;;;;;;;0.60;0.60;;;3.70;70.40;;;2.19;57.60;94711.03;5021626;28;20219;-84
2022/04/10 03:35:28;;;;;;;0.70;0.70;;;3.60;70.30;;;2.11;57.43;94713.53;5018379;28;20222;-83
2022/04/10 03:37:57;;;;;;;0.70;0.70;;;3.60;70.30;;;2.01;57.55;94716.97;5034996;28;20202;-84
2022/04/10 03:40:24;;;;;;;0.70;0.70;;;3.50;70.30;;;1.85;58.09;94702.06;5009082;28;20273;-84
2022/04/10 03:42:52;;;;;;;0.60;0.60;;;3.40;70.40;;;1.76;57.84;94701.16;5034412;28;20215;-83
2022/04/10 03:45:20;;;;;;;0.70;0.70;;;3.40;70.50;;;1.82;57.65;94717.06;5034256;28;20220;-84
2022/04/10 03:47:48;;;;;;;0.70;0.70;;;3.30;70.60;;;1.79;57.74;94725.91;5043191;28;20188;-83
2022/04/10 03:50:21;;;;;;;0.70;0.70;;;3.20;70.50;;;1.76;57.87;94727.03;5034745;28;20684;-84
2022/04/10 03:52:48;;;;;;;0.70;0.70;;;3.20;70.60;;;1.76;58.09;94733.97;5018524;28;20220;-84
2022/04/10 03:55:16;;;;;;;0.70;0.70;;;3.20;70.90;;;1.63;58.25;94707.63;5068162;28;20216;-85
2022/04/10 03:57:43;;;;;;;0.70;0.70;;;3.10;71.00;;;1.70;58.08;94731.97;5048373;28;20196;-85
2022/04/10 04:00:11;;;;;;;0.70;0.70;;;3.10;71.00;;;1.71;58.26;94739.56;5018001;28;20212;-84
2022/04/10 04:02:42;;;;;;;0.80;0.80;;;3.10;71.00;;;1.70;58.42;94743.09;5018695;28;20195;-85
2022/04/10 04:05:18;;;;;;;0.70;0.70;;;3.00;70.90;;;1.68;58.34;94755.34;5032047;28;20252;-84
2022/04/10 04:07:45;;;;;;;0.80;0.80;;;3.00;71.00;;;1.70;58.48;94757.81;5016649;28;20283;-85
2022/04/10 04:10:13;;;;;;;0.80;0.80;;;3.00;71.00;;;1.70;58.54;94761.19;4994667;28;20295;-85
2022/04/10 04:12:40;;;;;;;0.70;0.70;;;3.00;71.00;;;1.69;58.60;94759.56;5033418;28;20224;-86
2022/04/10 04:15:10;;;;;;;0.80;0.80;;;3.00;70.90;;;1.71;58.60;94768.00;5065491;28;20313;-85
2022/04/10 04:17:39;;;;;;;0.90;0.90;;;2.90;70.90;;;1.70;58.71;94771.53;5045654;28;20200;-85
2022/04/10 04:20:08;;;;;;;0.80;0.80;;;3.00;71.00;;;1.71;58.78;94770.59;5013071;28;20232;-86
2022/04/10 04:22:36;;;;;;;0.80;0.80;;;3.00;71.10;;;1.74;58.94;94775.47;5030683;28;20212;-85
2022/04/10 04:25:06;;;;;;;0.70;0.70;;;3.00;71.10;;;1.75;58.91;94765.97;5030851;28;20217;-86
2022/04/10 04:27:33;;;;;;;0.80;0.80;;;2.90;71.00;;;1.76;58.61;94772.75;5038359;28;20262;-86
2022/04/10 04:30:01;;;;;;;0.80;0.80;;;3.00;71.00;;;1.74;58.67;94779.84;4992045;28;20244;-85
2022/04/10 04:32:30;;;;;;;0.70;0.70;;;3.00;70.90;;;1.73;58.78;94778.19;5015817;28;20228;-86
2022/04/10 04:34:58;;;;;;;0.70;0.70;;;3.00;71.00;;;1.76;58.51;94786.50;5020256;28;20208;-86
2022/04/10 04:37:26;;;;;;;0.70;0.70;;;3.00;71.00;;;1.78;59.12;94781.19;5018261;28;20204;-86
2022/04/10 04:39:53;;;;;;;0.70;0.70;;;3.00;71.30;;;1.81;59.04;94780.91;5019079;28;20212;-85
2022/04/10 04:42:20;;;;;;;0.60;0.60;;;3.00;71.20;;;1.86;58.46;94793.41;5019544;28;20650;-84
2022/04/10 04:44:49;;;;;;;0.70;0.70;;;3.00;71.10;;;1.86;58.77;94790.84;5002502;28;20232;-86
2022/04/10 04:47:16;;;;;;;0.70;0.70;;;3.00;71.30;;;1.87;58.95;94795.84;5037253;28;20201;-86
2022/04/10 04:49:43;;;;;;;0.82;0.82;;;3.10;71.40;;;1.74;59.04;94764.31;5029637;28;20258;-86
2022/04/10 04:52:13;;;;;;;0.70;0.70;;;3.10;71.50;;;1.96;59.21;94806.31;5049930;28;20569;-85
2022/04/10 04:54:41;;;;;;;0.70;0.70;;;3.10;71.50;;;2.00;58.70;94802.47;5009419;28;20214;-85
2022/04/10 04:57:08;;;;;;;0.70;0.70;;;3.10;71.50;;;2.04;58.72;94809.81;5055566;28;20206;-84
2022/04/10 04:59:40;;;;;;;0.70;0.70;;;3.10;71.40;;;2.13;58.55;94808.16;5028515;28;20258;-85
2022/04/10 05:02:08;;;;;;;0.60;0.60;;;3.20;71.50;;;2.16;58.92;94813.06;5019288;28;20196;-85
2022/04/10 05:04:36;;;;;;;0.68;0.68;;;3.20;71.60;;;2.24;59.02;94809.75;5051448;28;20220;-85
2022/04/10 05:07:04;;;;;;;0.70;0.70;;;3.20;71.70;;;2.32;58.92;94809.84;5002916;28;20200;-85
2022/04/10 05:09:30;;;;;;;0.70;0.70;;;3.30;71.90;;;2.45;58.97;94804.31;5006838;28;20298;-83
2022/04/10 05:11:58;;;;;;;0.70;0.70;;;3.30;71.90;;;2.61;59.06;94805.47;5038969;28;20257;-84
2022/04/10 05:14:26;;;;;;;0.75;0.75;;;3.40;72.10;;;2.64;59.01;94797.44;5006928;28;20219;-82
2022/04/10 05:16:55;;;;;;;0.60;0.60;;;3.50;72.30;;;2.90;58.81;94810.47;5015315;28;20283;-81
2022/04/10 05:19:23;;;;;;;0.60;0.60;;;3.60;72.30;;;3.06;58.54;94802.03;5040464;28;20269;-82
2022/04/10 05:21:52;;;;;;;0.70;0.70;;;3.70;72.30;;;3.26;58.45;94810.50;5029874;28;20728;-82
2022/04/10 05:24:20;;;;;;;0.73;0.73;;;3.80;72.20;;;3.41;57.96;94823.72;5055317;28;20595;-85
2022/04/10 05:26:47;;;;;;;0.70;0.70;;;3.90;72.20;;;3.43;58.05;94801.06;5069629;28;20285;-85
2022/04/10 05:29:15;;;;;;;0.60;0.60;;;4.10;72.10;;;3.64;58.01;94812.88;5018021;28;20215;-85
2022/04/10 05:31:42;;;;;;;0.70;0.70;;;4.20;71.80;;;3.78;57.56;94825.28;5018783;28;20197;-85
2022/04/10 05:34:10;;;;;;;0.60;0.60;;;4.30;71.90;;;3.84;57.71;94813.50;4989759;28;20265;-86
2022/04/10 05:36:37;;;;;;;0.80;0.80;;;4.40;71.90;;;3.96;57.27;94820.06;5054355;28;20196;-85
2022/04/10 05:39:04;;;;;;;0.68;0.68;;;4.50;72.10;;;4.03;57.06;94830.66;5028150;28;20638;-85
2022/04/10 05:41:32;;;;;;;0.70;0.70;;;4.60;72.10;;;4.10;57.20;94828.25;5015236;28;20671;-85
2022/04/10 05:44:05;;;;;;;0.70;0.70;;;4.70;71.90;;;4.16;56.96;94836.25;5003875;28;20479;-85
2022/04/10 05:46:38;;;;;;;0.70;0.70;;;4.80;71.70;;;4.23;56.82;94831.22;5037926;28;20222;-85
2022/04/10 05:49:14;;;;;;;0.70;0.70;;;4.90;71.50;;;4.22;56.70;94821.00;5055757;28;20586;-85
2022/04/10 05:51:42;;;;;;;0.70;0.70;;;5.00;71.40;;;4.40;56.17;94839.91;5054301;28;20612;-83
2022/04/10 05:54:13;;;;;;;0.70;0.70;;;5.10;71.30;;;4.48;56.23;94839.97;5039839;28;20216;-84
2022/04/10 05:56:46;;;;;;;0.70;0.70;;;5.10;71.20;;;4.57;56.34;94840.00;5021612;28;20276;-83
2022/04/10 05:59:13;;;;;;;0.75;0.75;;;5.20;71.10;;;4.66;56.36;94841.66;5051937;28;20211;-83
2022/04/10 06:01:41;;;;;;;0.70;0.70;;;5.30;71.30;;;4.75;56.18;94853.72;5054543;28;20196;-84
2022/04/10 06:04:10;;;;;;;0.50;0.50;;;5.40;71.10;;;4.82;55.89;94840.88;5042732;28;20212;-83
2022/04/10 06:06:37;;;;;;;0.60;0.60;;;5.40;70.80;;;4.86;55.24;94836.19;5039926;28;20191;-83
2022/04/10 06:09:15;;;;;;;0.80;0.80;;;5.50;70.60;;;4.90;55.42;94838.31;5013016;28;20227;-83
2022/04/10 06:11:44;;;;;;;0.70;0.70;;;5.50;70.50;;;5.00;55.55;94848.56;5025575;28;20216;-83
2022/04/10 06:14:11;;;;;;;0.60;0.60;;;5.60;70.70;;;5.06;55.38;94853.13;5047003;28;20224;-84
2022/04/10 06:16:39;;;;;;;0.80;0.80;;;5.70;70.60;;;5.10;55.38;94846.66;5031446;28;20206;-84
2022/04/10 06:19:06;;;;;;;0.60;0.60;;;5.70;70.60;;;5.23;54.89;94855.78;5012903;28;20223;-83
2022/04/10 06:21:34;;;;;;;0.60;0.60;;;5.80;70.60;;;5.37;54.52;94857.75;5066241;28;20279;-84
2022/04/10 06:24:01;;;;;;;0.60;0.60;;;5.90;70.50;;;5.41;54.38;94846.03;5053034;28;20678;-84
2022/04/10 06:26:34;;;;;;;0.70;0.70;;;6.00;70.50;;;5.62;54.56;94847.34;5036083;28;20675;-84
2022/04/10 06:29:03;;;;;;;0.70;0.70;;;6.10;70.40;;;5.73;54.20;94846.22;5026149;28;20208;-84
2022/04/10 06:31:48;;;;;;;0.70;0.70;;;6.20;70.10;;;5.82;53.67;94849.63;5020404;28;20228;-85
2022/04/10 06:34:18;;;;;;;0.60;0.60;;;6.30;70.00;;;5.77;53.81;94837.09;5036462;28;20228;-85
2022/04/10 06:36:45;;;;;;;0.68;0.68;;;6.40;69.70;;;5.86;54.11;94854.34;5053590;28;20192;-84
2022/04/10 06:39:18;;;;;;;0.70;0.70;;;6.50;69.70;;;5.89;54.16;94861.00;5053852;28;20274;-84
2022/04/10 06:41:48;;;;;;;0.80;0.80;;;6.50;69.70;;;5.90;53.33;94865.25;5052605;28;20203;-85
2022/04/10 06:44:37;;;;;;;0.70;0.70;;;6.60;69.70;;;5.96;53.21;94863.75;5010933;28;20220;-85
2022/04/10 06:47:23;;;;;;;0.60;0.60;;;6.60;69.40;;;5.97;52.75;94868.81;5027031;28;20199;-86
2022/04/10 06:49:50;;;;;;;0.65;0.65;;;6.60;68.90;;;5.96;52.74;94862.00;5027469;28;20219;-85
2022/04/10 06:52:18;;;;;;;0.70;0.70;;;6.60;68.60;;;5.99;52.32;94866.88;5040564;28;20215;-85
2022/04/10 06:54:47;;;;;;;0.70;0.70;;;6.70;68.50;;;6.00;52.00;94885.94;5012864;28;20599;-86
2022/04/10 06:57:17;;;;;;;0.50;0.50;;;6.70;68.50;;;6.04;52.20;94895.03;5037076;28;20204;-85
2022/04/10 06:59:45;;;;;;;0.50;0.50;;;6.70;68.40;;;6.07;52.39;94871.28;5053677;28;20220;-84
2022/04/10 07:02:13;;;;;;;0.50;0.50;;;6.70;68.50;;;6.20;52.67;94873.38;5024698;28;20203;-84
2022/04/10 07:04:41;;;;;;;0.70;0.70;;;6.80;68.70;;;6.35;52.43;94879.53;5049629;28;20311;-85
2022/04/10 07:07:09;;;;;;;0.60;0.60;;;6.80;68.80;;;6.49;51.06;94885.03;5028637;28;20188;-85
2022/04/10 07:09:36;;;;;;;0.55;0.55;;;6.90;68.10;;;6.61;51.36;94877.69;5057960;28;20223;-86
2022/04/10 07:12:04;;;;;;;0.50;0.50;;;7.00;68.50;;;6.81;50.56;94891.94;5056136;28;20186;-85
2022/04/10 07:14:37;;;;;;;0.50;0.50;;;7.10;68.10;;;6.87;50.71;94861.75;5013514;28;20224;-86
2022/04/10 07:17:05;;;;;;;0.50;0.50;;;7.20;68.10;;;7.07;50.17;94877.81;5039191;28;20611;-86
2022/04/10 07:19:32;;;;;;;0.60;0.60;;;7.30;67.80;;;7.22;50.09;94872.69;5023776;28;20216;-86
2022/04/10 07:24:46;;;;;;;0.60;0.60;;;7.60;66.80;;;7.34;48.86;94886.94;5039015;28;20872;-85
2022/04/10 07:27:13;;;;;;;0.50;0.50;;;7.70;66.80;;;7.34;49.22;94878.31;5048870;28;20203;-85
2022/04/10 07:29:53;;;;;;;0.60;0.60;;;7.70;66.60;;;7.39;49.14;94877.81;5027195;28;20228;-85
2022/04/10 07:32:26;;;;;;;0.50;0.50;;;7.80;66.40;;;7.41;49.24;94875.81;5044214;28;20234;-85
2022/04/10 07:35:04;;;;;;;0.70;0.70;;;7.90;66.50;;;7.44;48.70;94870.28;5053668;28;20234;-86
2022/04/10 07:37:50;;;;;;;0.52;0.52;;;7.90;66.10;;;7.54;48.65;94881.28;5039837;28;20674;-85
2022/04/10 07:40:19;;;;;;;0.60;0.60;;;8.00;66.30;;;7.58;48.29;94892.19;5035527;28;20698;-84
2022/04/10 07:42:48;;;;;;;0.50;0.50;;;8.00;66.00;;;7.60;48.31;94882.41;5047629;28;20203;-84
2022/04/10 07:48:14;;;;;;;0.60;0.60;;;8.10;65.60;;;7.44;47.71;94884.13;5056303;28;20219;-84
2022/04/10 07:50:41;;;;;;;0.70;0.70;;;8.10;65.10;;;7.29;47.98;94884.06;5001731;28;20223;-85
2022/04/10 07:53:11;;;;;;;0.70;0.70;;;8.10;65.20;;;7.28;48.70;94898.06;5051548;28;20220;-83
2022/04/10 07:55:45;;;;;;;0.50;0.50;;;8.00;65.30;;;7.22;48.67;94899.56;5046279;28;20227;-84
2022/04/10 07:58:12;;;;;;;0.50;0.50;;;8.00;65.10;;;7.18;48.53;94900.09;5052187;28;20204;-85
2022/04/10 08:00:40;;;;;;;0.60;0.60;;;8.00;65.10;;;7.12;48.55;94900.78;5042712;28;20696;-84
2022/04/10 08:03:09;;;;;;;0.57;0.57;;;7.90;65.10;;;7.06;48.92;94899.66;5035846;28;20283;-83
2022/04/10 08:06:11;;;;;;;0.60;0.60;;;7.90;65.40;;;7.03;48.79;94903.44;4972345;28;20337;-84
2022/04/10 08:08:42;;;;;;;0.60;0.60;;;7.80;65.30;;;7.02;49.07;94886.16;5034810;28;20195;-85
2022/04/10 08:11:09;;;;;;;0.50;0.50;;;7.80;65.90;;;7.21;49.63;94905.78;5028419;28;20216;-84
2022/04/10 08:13:36;;;;;;;0.70;0.70;;;7.80;66.50;;;7.36;49.63;94886.78;5036954;28;20216;-84
2022/04/10 08:16:04;;;;;;;0.60;0.60;;;7.80;66.50;;;7.53;49.66;94887.47;5037358;28;20630;-83
2022/04/10 08:18:32;;;;;;;0.50;0.50;;;7.90;66.60;;;7.68;49.55;94893.59;5019924;28;20275;-84
2022/04/10 08:20:59;;;;;;;0.50;0.50;;;8.00;66.70;;;7.78;48.36;94903.81;5033590;28;20187;-83
2022/04/10 08:23:26;;;;;;;0.80;0.80;;;8.00;65.90;;;7.88;48.01;94894.94;5015732;28;20204;-84
2022/04/10 08:25:53;;;;;;;0.55;0.55;;;8.00;65.80;;;8.02;48.49;94896.78;5018707;28;20251;-83
2022/04/10 08:28:20;;;;;;;0.70;0.70;;;8.20;66.40;;;8.20;48.69;94900.84;5036051;28;20206;-84
2022/04/10 08:30:48;;;;;;;0.50;0.50;;;8.20;66.40;;;8.13;47.74;94869.41;5037299;28;20227;-84
2022/04/10 08:33:16;;;;;;;0.50;0.50;;;8.30;65.70;;;8.44;48.08;94897.22;5034378;28;20265;-85
2022/04/10 08:35:43;;;;;;;0.50;0.50;;;8.50;66.20;;;8.49;47.84;94882.66;5034808;28;20281;-84
2022/04/10 08:38:10;;;;;;;0.50;0.50;;;8.60;66.00;;;8.62;47.28;94897.69;5019764;28;20207;-84
2022/04/10 08:40:37;;;;;;;0.50;0.50;;;8.70;65.20;;;8.63;47.24;94896.72;5035034;28;20323;-85
2022/04/10 08:43:06;;;;;;;0.63;0.63;;;8.80;65.20;;;8.72;47.53;94900.03;5051546;28;20656;-85
2022/04/10 08:45:35;;;;;;;0.50;0.50;;;8.90;65.20;;;8.80;47.79;94906.97;5004809;28;20235;-84
2022/04/10 08:48:04;;;;;;;0.50;0.50;;;9.00;65.50;;;8.88;47.76;94904.28;5034524;28;20275;-85
2022/04/10 08:50:31;;;;;;;0.70;0.70;;;9.10;65.40;;;8.93;47.22;94914.19;5030850;28;20244;-85
2022/04/10 08:52:59;;;;;;;0.50;0.50;;;9.10;65.00;;;8.94;46.96;94906.16;5002338;28;20585;-83
2022/04/10 08:55:26;;;;;;;0.70;0.70;;;9.20;64.90;;;8.96;47.50;94911.22;5014803;28;20229;-85
2022/04/10 08:57:53;;;;;;;0.57;0.57;;;9.20;65.10;;;8.97;47.32;94897.97;5031364;28;20204;-85
2022/04/10 09:00:23;;;;;;;0.70;0.70;;;9.30;64.90;;;8.89;47.16;94907.72;5047750;28;20255;-85
2022/04/10 09:02:52;;;;;;;0.70;0.70;;;9.30;64.70;;;8.76;47.63;94924.84;5045188;28;20200;-83
2022/04/10 09:05:22;;;;;;;0.60;0.60;;;9.30;64.70;;;8.57;47.84;94918.34;5018496;28;20220;-84
2022/04/10 09:08:13;;;;;;;0.70;0.70;;;9.20;65.10;;;8.47;48.52;94915.16;5053224;28;20246;-85
2022/04/10 09:10:54;;;;;;;0.50;0.50;;;9.10;65.20;;;8.39;48.99;94917.84;5033757;28;20306;-84
2022/04/10 09:13:40;;;;;;;0.50;0.50;;;9.10;65.10;;;8.32;48.95;94917.72;5047141;28;20291;-85
2022/04/10 09:16:20;;;;;;;0.50;0.50;;;9.00;66.30;;;8.27;49.54;94910.41;5029770;28;20718;-85
2022/04/10 09:18:58;;;;;;;0.70;0.70;;;9.00;65.70;;;8.20;49.04;94916.53;5029949;28;20285;-86
2022/04/10 09:21:32;;;;;;;0.50;0.50;;;8.90;65.30;;;8.04;49.28;94917.50;5047549;28;20243;-85
2022/04/10 09:24:03;;;;;;;0.70;0.70;;;8.80;65.60;;;7.95;49.66;94927.19;5039822;28;20299;-84
2022/04/10 09:26:48;;;;;;;0.70;0.70;;;8.70;65.80;;;7.95;50.17;94917.53;5037624;28;20191;-82
2022/04/10 09:29:18;;;;;;;0.50;0.50;;;8.60;66.50;;;8.06;50.01;94912.91;5034064;28;20227;-85
2022/04/10 09:31:46;;;;;;;0.50;0.50;;;8.60;66.60;;;8.21;50.51;94916.34;5030484;28;20690;-85
2022/04/10 09:34:19;;;;;;;0.70;0.70;;;8.60;66.90;;;8.28;50.17;94895.56;5046632;28;20235;-83
2022/04/10 09:37:06;;;;;;;0.50;0.50;;;8.70;67.10;;;8.60;49.86;94911.94;5037382;28;20196;-84
2022/04/10 09:39:35;;;;;;;0.73;0.73;;;8.80;67.40;;;8.70;49.76;94907.25;5034072;28;20228;-83
2022/04/10 09:42:10;;;;;;;0.70;0.70;;;8.80;67.10;;;8.59;49.84;94897.25;5031229;28;20208;-85
2022/04/10 09:44:57;;;;;;;0.50;0.50;;;8.90;66.60;;;8.57;50.03;94907.06;5017929;28;20217;-84
2022/04/10 09:47:27;;;;;;;0.50;0.50;;;8.90;66.70;;;8.52;49.93;94904.19;5015237;28;20623;-85
2022/04/10 09:50:05;;;;;;;0.50;0.50;;;9.00;66.70;;;8.39;50.27;94904.78;5033982;28;20287;-85
2022/04/10 09:52:39;;;;;;;0.50;0.50;;;9.00;66.90;;;8.42;50.74;94904.41;5042632;28;20254;-85
2022/04/10 09:55:08;;;;;;;0.60;0.60;;;8.90;67.20;;;8.53;51.29;94908.41;5050369;28;20228;-84
2022/04/10 09:57:36;;;;;;;0.60;0.60;;;9.00;67.80;;;8.57;51.13;94899.22;5050056;28;20207;-84
2022/04/10 10:00:06;;;;;;;0.50;0.50;;;9.00;67.80;;;8.74;50.41;94908.53;5034011;28;20247;-85
2022/04/10 10:02:39;;;;;;;0.70;0.70;;;9.10;67.30;;;8.75;49.15;94907.53;5036839;28;20196;-86
2022/04/10 10:05:07;;;;;;;0.63;0.63;;;9.10;66.40;;;8.77;48.47;94909.97;5020797;28;20230;-85
2022/04/10 10:07:37;;;;;;;0.50;0.50;;;9.10;66.00;;;8.80;49.57;94906.97;5034885;28;20193;-85
2022/04/10 10:10:05;;;;;;;0.50;0.50;;;9.10;66.30;;;8.76;47.99;94916.19;5032337;28;20248;-85
2022/04/10 10:12:34;;;;;;;0.55;0.55;;;9.10;65.40;;;8.57;48.08;94900.03;5014976;28;20196;-86
2022/04/10 10:15:02;;;;;;;0.80;0.80;;;9.20;65.10;;;8.46;46.69;94901.28;5017538;28;20319;-85
2022/04/10 10:17:29;;;;;;;0.68;0.68;;;9.10;63.90;;;8.22;46.18;94899.69;5064119;28;20214;-85
2022/04/10 10:20:00;;;;;;;0.50;0.50;;;9.00;63.70;;;7.96;46.31;94890.44;5040041;28;20314;-86
2022/04/10 10:22:28;;;;;;;0.50;0.50;;;9.00;64.60;;;7.93;46.57;94889.97;5035655;28;20284;-85
2022/04/10 10:25:08;;;;;;;0.60;0.60;;;8.90;63.50;;;7.75;46.65;94879.84;5037833;28;20219;-86
2022/04/10 10:27:58;;;;;;;0.47;0.47;;;8.80;63.30;;;7.74;46.34;94894.69;5021596;28;20204;-85
2022/04/10 10:31:13;;;;;;;0.50;0.50;;;8.70;63.40;;;7.79;46.77;94881.13;5039030;28;20227;-86
2022/04/10 10:34:00;;;;;;;0.50;0.50;;;8.60;63.60;;;7.89;47.21;94875.66;5017266;28;20220;-85
2022/04/10 10:36:29;;;;;;;0.68;0.68;;;8.60;64.00;;;8.10;47.68;94865.34;5037219;28;20249;-86
2022/04/10 10:38:57;;;;;;;0.50;0.50;;;8.50;64.40;;;8.41;47.48;94863.56;5033403;28;20248;-85
2022/04/10 10:41:25;;;;;;;0.50;0.50;;;8.60;65.30;;;8.75;46.68;94852.63;5026053;28;20203;-86
2022/04/10 10:43:55;;;;;;;0.50;0.50;;;8.70;64.60;;;9.03;45.39;94909.50;5055281;28;20218;-86
2022/04/10 10:46:32;;;;;;;0.40;0.40;;;8.80;64.30;;;9.23;43.37;94869.69;5038295;28;20196;-86
2022/04/10 10:49:11;;;;;;;0.50;0.50;;;9.00;62.60;;;9.40;44.41;94889.41;5036542;28;20226;-86
2022/04/10 10:51:42;;;;;;;0.60;0.60;;;9.20;63.40;;;9.43;46.12;94909.16;5053955;28;20622;-86